Time;durP1;ratioP1;P1;durP2;ratioP2;P2;SDS_P1;SDS_P2;PMS_P1;PMS_P2;Temp;Humidity;BMP_temperature;BMP_pressure;BME280_temperature;BME280_humidity;BME280_pressure;Samples;Min_cycle;Max_cycle;Signal;HPM_P1;HPM_P2
2021/12/28 00:00:26;;;;;;;5.93;4.72;;;;;;;;;;5039710;28;20033;-53
2021/12/28 00:02:52;;;;;;;4.10;3.70;;;;;;;;;;5042477;28;20028;-51
2021/12/28 00:05:19;;;;;;;6.13;4.85;;;;;;;;;;5039598;28;20032;-52
2021/12/28 00:07:44;;;;;;;5.65;4.90;;;;;;;;;;5039270;28;20036;-51
2021/12/28 00:10:12;;;;;;;7.00;5.03;;;;;;;;;;5039611;28;20026;-52
2021/12/28 00:12:38;;;;;;;5.20;4.63;;;;;;;;;;5041003;28;20463;-49
2021/12/28 00:15:33;;;;;;;4.65;3.78;;;;;;;;;;5038570;28;20609;-52
2021/12/28 00:18:02;;;;;;;6.10;3.58;;;;;;;;;;5041931;28;20033;-53
2021/12/28 00:20:37;;;;;;;6.03;4.35;;;;;;;;;;5040860;28;20033;-53
2021/12/28 00:23:05;;;;;;;3.85;3.47;;;;;;;;;;5041212;28;20040;-50
2021/12/28 00:25:31;;;;;;;4.75;4.32;;;;;;;;;;5039768;28;20108;-49
2021/12/28 00:27:57;;;;;;;3.92;3.53;;;;;;;;;;5039158;28;20120;-51
2021/12/28 00:30:23;;;;;;;5.60;5.05;;;;;;;;;;5040201;28;20072;-52
2021/12/28 00:32:53;;;;;;;5.25;4.75;;;;;;;;;;5040165;28;20033;-54
2021/12/28 00:35:21;;;;;;;4.32;3.92;;;;;;;;;;5041838;28;20033;-53
2021/12/28 00:37:47;;;;;;;3.72;3.38;;;;;;;;;;5042567;28;20454;-51
2021/12/28 00:40:13;;;;;;;4.70;3.92;;;;;;;;;;5039695;28;20068;-50
2021/12/28 00:42:38;;;;;;;5.28;4.63;;;;;;;;;;5042037;28;20041;-50
2021/12/28 00:45:04;;;;;;;4.75;4.25;;;;;;;;;;5039041;28;20371;-50
2021/12/28 00:47:29;;;;;;;5.18;4.68;;;;;;;;;;5040877;28;20514;-53
2021/12/28 00:49:56;;;;;;;5.38;4.88;;;;;;;;;;5040120;28;20116;-51
2021/12/28 00:52:21;;;;;;;4.97;4.47;;;;;;;;;;5039334;28;20041;-52
2021/12/28 00:54:47;;;;;;;4.45;4.05;;;;;;;;;;5039419;28;20473;-52
2021/12/28 00:57:12;;;;;;;4.43;4.03;;;;;;;;;;5038278;28;20045;-53
2021/12/28 00:59:37;;;;;;;4.05;3.65;;;;;;;;;;5041476;28;20534;-51
2021/12/28 01:02:03;;;;;;;4.90;4.40;;;;;;;;;;5039693;28;20412;-53
2021/12/28 01:04:28;;;;;;;7.22;4.50;;;;;;;;;;5042498;28;20471;-53
2021/12/28 01:06:54;;;;;;;4.80;4.38;;;;;;;;;;5040048;28;20037;-52
2021/12/28 01:09:19;;;;;;;4.53;3.95;;;;;;;;;;5040645;28;20030;-50
2021/12/28 01:11:45;;;;;;;5.47;4.60;;;;;;;;;;5040721;28;20033;-54
2021/12/28 01:14:10;;;;;;;4.57;3.60;;;;;;;;;;5038598;28;20037;-50
2021/12/28 01:16:35;;;;;;;4.35;3.95;;;;;;;;;;5039540;28;20111;-52
2021/12/28 01:19:01;;;;;;;12.27;4.10;;;;;;;;;;5039690;28;20093;-52
2021/12/28 01:21:27;;;;;;;4.35;3.95;;;;;;;;;;5037886;28;20040;-54
2021/12/28 01:23:52;;;;;;;4.28;3.88;;;;;;;;;;5037660;28;20056;-53
2021/12/28 01:26:17;;;;;;;4.78;3.67;;;;;;;;;;5039008;28;20033;-51
2021/12/28 01:28:43;;;;;;;5.07;3.40;;;;;;;;;;5038328;28;20128;-54
2021/12/28 01:31:08;;;;;;;3.88;3.50;;;;;;;;;;5041233;28;20189;-53
2021/12/28 01:33:34;;;;;;;5.10;4.60;;;;;;;;;;5038381;28;20033;-53
2021/12/28 01:35:59;;;;;;;7.05;3.78;;;;;;;;;;5041235;28;20089;-50
2021/12/28 01:38:24;;;;;;;5.03;4.57;;;;;;;;;;5038416;28;20045;-53
2021/12/28 01:40:52;;;;;;;3.97;3.58;;;;;;;;;;5038335;28;20040;-52
2021/12/28 01:43:20;;;;;;;3.95;3.55;;;;;;;;;;5039130;28;20047;-51
2021/12/28 01:45:51;;;;;;;3.75;3.35;;;;;;;;;;5041254;28;20029;-50
2021/12/28 01:48:21;;;;;;;;;;;;;;;;;;5040776;28;20046;-51
2021/12/28 01:50:48;;;;;;;3.40;3.10;;;;;;;;;;5039371;28;20510;-51
2021/12/28 01:53:14;;;;;;;3.13;2.83;;;;;;;;;;5054590;28;20075;-51
2021/12/28 01:55:42;;;;;;;4.38;3.97;;;;;;;;;;5040561;28;20025;-49
2021/12/28 01:58:08;;;;;;;3.70;3.33;;;;;;;;;;5037466;28;20045;-53
2021/12/28 02:00:35;;;;;;;3.97;3.58;;;;;;;;;;5039955;28;20053;-54
2021/12/28 02:03:08;;;;;;;4.05;3.45;;;;;;;;;;5040083;28;20098;-51
2021/12/28 02:05:35;;;;;;;4.05;3.65;;;;;;;;;;5038404;28;20056;-53
2021/12/28 02:08:00;;;;;;;3.88;3.35;;;;;;;;;;5041239;28;20052;-54
2021/12/28 02:10:25;;;;;;;3.53;3.03;;;;;;;;;;5040784;28;20403;-53
2021/12/28 02:12:51;;;;;;;4.05;3.65;;;;;;;;;;5039145;28;20025;-53
2021/12/28 02:15:16;;;;;;;5.90;3.22;;;;;;;;;;5037735;28;20027;-53
2021/12/28 02:17:42;;;;;;;4.18;3.78;;;;;;;;;;5038391;28;20105;-53
2021/12/28 02:20:11;;;;;;;3.58;3.28;;;;;;;;;;5036866;28;20021;-54
2021/12/28 02:22:37;;;;;;;6.70;4.18;;;;;;;;;;5037639;28;20041;-52
2021/12/28 02:25:04;;;;;;;3.88;3.47;;;;;;;;;;5040370;28;20119;-51
2021/12/28 02:27:29;;;;;;;4.60;4.07;;;;;;;;;;5037594;28;20470;-49
2021/12/28 02:29:55;;;;;;;3.60;3.30;;;;;;;;;;5036880;28;20045;-49
2021/12/28 02:32:25;;;;;;;4.07;3.03;;;;;;;;;;5036487;28;20455;-50
2021/12/28 02:34:50;;;;;;;4.47;3.38;;;;;;;;;;5036901;28;20033;-51
2021/12/28 02:37:15;;;;;;;4.03;3.60;;;;;;;;;;5038927;28;20242;-50
2021/12/28 02:39:41;;;;;;;5.28;4.28;;;;;;;;;;5038393;28;20037;-54
2021/12/28 02:42:07;;;;;;;7.35;3.45;;;;;;;;;;5037039;28;20044;-50
2021/12/28 02:44:32;;;;;;;5.40;4.82;;;;;;;;;;5036875;28;20026;-49
2021/12/28 02:46:57;;;;;;;2.90;2.60;;;;;;;;;;5037156;28;20021;-53
2021/12/28 02:49:23;;;;;;;6.32;3.67;;;;;;;;;;5036407;28;20037;-53
2021/12/28 02:51:48;;;;;;;2.90;2.60;;;;;;;;;;5036757;28;20049;-49
2021/12/28 02:54:13;;;;;;;3.72;3.42;;;;;;;;;;5036933;28;20344;-52
2021/12/28 02:56:39;;;;;;;3.13;2.83;;;;;;;;;;5037392;28;20116;-53
2021/12/28 02:59:04;;;;;;;5.32;3.25;;;;;;;;;;5037266;28;20060;-51
2021/12/28 03:01:30;;;;;;;4.18;3.78;;;;;;;;;;5040134;28;20028;-51
2021/12/28 03:04:07;;;;;;;4.28;2.78;;;;;;;;;;5038693;28;20025;-53
2021/12/28 03:06:34;;;;;;;3.40;3.10;;;;;;;;;;5035709;28;20036;-50
2021/12/28 03:09:03;;;;;;;3.45;3.00;;;;;;;;;;5039287;28;20029;-53
2021/12/28 03:11:29;;;;;;;4.00;3.47;;;;;;;;;;5039311;28;20029;-53
2021/12/28 03:14:00;;;;;;;3.58;3.28;;;;;;;;;;5039233;28;20526;-52
2021/12/28 03:16:28;;;;;;;3.92;3.40;;;;;;;;;;5036753;28;20916;-53
2021/12/28 03:18:53;;;;;;;3.40;3.00;;;;;;;;;;5041932;28;20048;-52
2021/12/28 03:21:21;;;;;;;12.80;3.65;;;;;;;;;;5037829;28;20418;-50
2021/12/28 03:23:47;;;;;;;8.43;3.22;;;;;;;;;;5041879;28;20058;-51
2021/12/28 03:26:13;;;;;;;4.43;3.63;;;;;;;;;;5040742;28;20021;-53
2021/12/28 03:28:41;;;;;;;3.85;3.45;;;;;;;;;;5043212;28;20044;-51
2021/12/28 03:31:10;;;;;;;9.93;3.33;;;;;;;;;;5040698;28;20029;-52
2021/12/28 03:33:38;;;;;;;5.45;3.60;;;;;;;;;;5042549;28;20056;-52
2021/12/28 03:36:05;;;;;;;4.05;3.65;;;;;;;;;;5042134;28;20029;-53
2021/12/28 03:38:31;;;;;;;2.88;2.30;;;;;;;;;;5040637;28;20065;-54
2021/12/28 03:40:56;;;;;;;4.65;2.63;;;;;;;;;;5044221;28;20531;-52
2021/12/28 03:43:22;;;;;;;3.25;2.80;;;;;;;;;;5039782;28;20566;-53
2021/12/28 03:45:48;;;;;;;3.10;2.80;;;;;;;;;;5058453;28;20032;-50
2021/12/28 03:48:14;;;;;;;5.72;3.25;;;;;;;;;;5039087;28;20107;-51
2021/12/28 03:50:40;;;;;;;3.80;3.47;;;;;;;;;;5041251;28;20033;-50
2021/12/28 03:53:06;;;;;;;3.03;2.72;;;;;;;;;;5043401;28;20033;-52
2021/12/28 03:55:32;;;;;;;4.05;3.58;;;;;;;;;;5040191;28;20474;-54
2021/12/28 03:58:00;;;;;;;5.40;3.25;;;;;;;;;;5042594;28;20051;-52
2021/12/28 04:00:28;;;;;;;5.38;3.83;;;;;;;;;;5039529;28;20067;-52
2021/12/28 04:02:54;;;;;;;5.88;4.20;;;;;;;;;;5041333;28;20044;-52
2021/12/28 04:05:19;;;;;;;3.38;3.08;;;;;;;;;;5042497;28;20025;-51
2021/12/28 04:07:46;;;;;;;3.70;2.80;;;;;;;;;;5038378;28;20033;-52
2021/12/28 04:10:15;;;;;;;4.55;3.53;;;;;;;;;;5041352;28;20432;-52
2021/12/28 04:12:41;;;;;;;4.47;3.47;;;;;;;;;;5042634;28;20113;-54
2021/12/28 04:15:11;;;;;;;3.47;3.17;;;;;;;;;;5038198;28;20103;-50
2021/12/28 04:17:38;;;;;;;3.73;3.20;;;;;;;;;;5043510;28;20421;-52
2021/12/28 04:20:11;;;;;;;3.08;2.78;;;;;;;;;;5026382;28;20083;-52
2021/12/28 04:22:37;;;;;;;7.93;4.20;;;;;;;;;;5041210;28;20529;-53
2021/12/28 04:25:05;;;;;;;3.35;3.05;;;;;;;;;;5038007;28;20048;-54
2021/12/28 04:27:30;;;;;;;3.65;3.10;;;;;;;;;;5042485;28;20415;-51
2021/12/28 04:29:55;;;;;;;3.55;3.25;;;;;;;;;;5036745;28;20102;-50
2021/12/28 04:32:21;;;;;;;5.82;3.40;;;;;;;;;;5040485;28;20099;-54
2021/12/28 04:34:47;;;;;;;3.35;3.05;;;;;;;;;;5041092;28;20037;-53
2021/12/28 04:37:12;;;;;;;3.45;3.15;;;;;;;;;;5038067;28;20104;-49
2021/12/28 04:39:37;;;;;;;3.30;3.00;;;;;;;;;;5059583;28;20045;-53
2021/12/28 04:42:03;;;;;;;3.05;2.75;;;;;;;;;;5040370;28;20041;-51
2021/12/28 04:44:29;;;;;;;3.13;2.83;;;;;;;;;;5040179;28;20077;-57
2021/12/28 04:46:54;;;;;;;3.83;3.42;;;;;;;;;;5040602;28;20082;-51
2021/12/28 04:49:22;;;;;;;3.53;3.22;;;;;;;;;;5038615;28;20340;-48
2021/12/28 04:51:48;;;;;;;3.28;2.97;;;;;;;;;;5039599;28;20029;-49
2021/12/28 04:54:14;;;;;;;4.82;3.55;;;;;;;;;;5035791;28;20447;-48
2021/12/28 04:56:41;;;;;;;3.60;3.30;;;;;;;;;;5039770;28;20485;-48
2021/12/28 04:59:06;;;;;;;9.13;3.47;;;;;;;;;;5039984;28;20045;-49
2021/12/28 05:01:31;;;;;;;2.92;2.60;;;;;;;;;;5039913;28;20025;-49
2021/12/28 05:03:57;;;;;;;3.50;3.20;;;;;;;;;;5040159;28;20116;-51
2021/12/28 05:06:22;;;;;;;3.13;2.78;;;;;;;;;;5036935;28;20363;-53
2021/12/28 05:08:48;;;;;;;3.60;3.30;;;;;;;;;;5039723;28;20041;-52
2021/12/28 05:11:14;;;;;;;7.57;3.67;;;;;;;;;;5042404;28;20116;-51
2021/12/28 05:13:40;;;;;;;3.15;2.85;;;;;;;;;;5044564;28;20048;-52
2021/12/28 05:16:06;;;;;;;4.28;2.78;;;;;;;;;;5037882;28;20044;-51
2021/12/28 05:18:31;;;;;;;4.07;3.55;;;;;;;;;;5040546;28;20079;-50
2021/12/28 05:20:57;;;;;;;3.05;2.75;;;;;;;;;;5041197;28;20112;-48
2021/12/28 05:23:22;;;;;;;4.50;3.42;;;;;;;;;;5039536;28;20121;-51
2021/12/28 05:25:48;;;;;;;3.55;3.22;;;;;;;;;;5038822;28;20028;-52
2021/12/28 05:28:13;;;;;;;3.60;3.30;;;;;;;;;;5040668;28;20036;-48
2021/12/28 05:30:39;;;;;;;5.80;3.85;;;;;;;;;;5040580;28;20033;-49
2021/12/28 05:33:05;;;;;;;8.70;4.10;;;;;;;;;;5039316;28;20036;-49
2021/12/28 05:35:30;;;;;;;4.80;3.90;;;;;;;;;;5035885;28;20057;-49
2021/12/28 05:37:56;;;;;;;2.78;2.38;;;;;;;;;;5037256;28;20107;-49
2021/12/28 05:40:21;;;;;;;3.40;3.10;;;;;;;;;;5037675;28;20052;-52
2021/12/28 05:42:47;;;;;;;5.25;3.97;;;;;;;;;;5041363;28;20040;-51
2021/12/28 05:45:14;;;;;;;4.28;3.40;;;;;;;;;;5039928;28;20057;-49
2021/12/28 05:47:39;;;;;;;7.82;2.80;;;;;;;;;;5040275;28;20083;-49
2021/12/28 05:50:07;;;;;;;3.67;3.38;;;;;;;;;;5040207;28;20072;-50
2021/12/28 05:52:32;;;;;;;4.72;2.92;;;;;;;;;;5040161;28;20104;-49
2021/12/28 05:54:58;;;;;;;2.80;2.50;;;;;;;;;;5039452;28;20108;-49
2021/12/28 05:57:24;;;;;;;3.28;2.95;;;;;;;;;;5030075;28;20037;-48
2021/12/28 05:59:50;;;;;;;3.00;2.45;;;;;;;;;;5039185;28;20052;-50
2021/12/28 06:02:15;;;;;;;4.40;3.42;;;;;;;;;;5040078;28;20025;-50
2021/12/28 06:04:41;;;;;;;2.70;2.22;;;;;;;;;;5039273;28;20114;-51
2021/12/28 06:07:06;;;;;;;3.80;3.22;;;;;;;;;;5037896;28;20151;-50
2021/12/28 06:09:31;;;;;;;3.03;2.72;;;;;;;;;;5043104;28;20124;-48
2021/12/28 06:11:57;;;;;;;3.47;3.17;;;;;;;;;;5039093;28;20105;-50
2021/12/28 06:14:22;;;;;;;3.08;2.78;;;;;;;;;;5040101;28;20462;-50
2021/12/28 06:16:47;;;;;;;3.17;2.88;;;;;;;;;;5040587;28;20068;-49
2021/12/28 06:19:13;;;;;;;2.90;2.60;;;;;;;;;;5038304;28;21790;-47
2021/12/28 06:21:38;;;;;;;3.10;2.80;;;;;;;;;;5037824;28;20586;-49
2021/12/28 06:24:05;;;;;;;4.35;3.40;;;;;;;;;;5039205;28;20026;-50
2021/12/28 06:26:32;;;;;;;6.00;3.50;;;;;;;;;;5038593;28;20445;-49
2021/12/28 06:28:58;;;;;;;3.10;2.80;;;;;;;;;;5040098;28;20047;-47
2021/12/28 06:31:28;;;;;;;4.93;2.80;;;;;;;;;;5040453;28;20033;-51
2021/12/28 06:33:57;;;;;;;3.67;2.93;;;;;;;;;;5040466;28;20477;-48
2021/12/28 06:36:23;;;;;;;3.00;2.70;;;;;;;;;;5038584;28;20836;-50
2021/12/28 06:38:49;;;;;;;2.92;2.63;;;;;;;;;;5038740;28;20033;-52
2021/12/28 06:41:15;;;;;;;2.92;2.63;;;;;;;;;;5054699;28;20025;-52
2021/12/28 06:43:40;;;;;;;3.08;2.75;;;;;;;;;;5038131;28;20040;-51
2021/12/28 06:46:05;;;;;;;3.35;2.70;;;;;;;;;;5039348;28;20029;-48
2021/12/28 06:48:31;;;;;;;3.55;3.05;;;;;;;;;;5039079;28;20033;-49
2021/12/28 06:50:56;;;;;;;2.88;2.58;;;;;;;;;;5039272;28;20044;-47
2021/12/28 06:53:22;;;;;;;3.00;2.60;;;;;;;;;;5040107;28;20029;-52
2021/12/28 06:55:47;;;;;;;4.63;3.42;;;;;;;;;;5043243;28;20110;-50
2021/12/28 06:58:12;;;;;;;3.20;2.90;;;;;;;;;;5041096;28;20039;-50
2021/12/28 07:00:39;;;;;;;2.83;2.53;;;;;;;;;;5041265;28;20441;-48
2021/12/28 07:03:05;;;;;;;3.50;3.20;;;;;;;;;;5043366;28;20029;-49
2021/12/28 07:05:30;;;;;;;3.78;2.65;;;;;;;;;;5038118;28;20344;-50
2021/12/28 07:07:56;;;;;;;4.13;3.05;;;;;;;;;;5042270;28;20033;-47
2021/12/28 07:10:21;;;;;;;3.90;3.13;;;;;;;;;;5041226;28;20033;-47
2021/12/28 07:12:50;;;;;;;4.28;3.00;;;;;;;;;;5038879;28;20037;-47
2021/12/28 07:15:16;;;;;;;4.47;4.03;;;;;;;;;;5041807;28;20036;-46
2021/12/28 07:17:41;;;;;;;6.90;3.22;;;;;;;;;;5042499;28;20032;-52
2021/12/28 07:20:08;;;;;;;3.08;2.78;;;;;;;;;;5040174;28;20032;-50
2021/12/28 07:22:34;;;;;;;3.28;2.97;;;;;;;;;;5041939;28;20242;-50
2021/12/28 07:24:59;;;;;;;2.70;2.30;;;;;;;;;;5043154;28;20400;-48
2021/12/28 07:27:25;;;;;;;2.90;2.60;;;;;;;;;;5043211;28;20414;-48
2021/12/28 07:29:50;;;;;;;3.13;2.75;;;;;;;;;;5042653;28;20040;-50
2021/12/28 07:32:15;;;;;;;3.00;2.50;;;;;;;;;;5044718;28;20108;-48
2021/12/28 07:34:41;;;;;;;3.65;2.80;;;;;;;;;;5040871;28;20032;-48
2021/12/28 07:37:06;;;;;;;3.40;2.83;;;;;;;;;;5041605;28;20067;-48
2021/12/28 07:39:31;;;;;;;3.13;2.78;;;;;;;;;;5040477;28;20045;-48
2021/12/28 07:41:57;;;;;;;3.25;2.83;;;;;;;;;;5040899;28;20025;-53
2021/12/28 07:44:23;;;;;;;3.33;2.80;;;;;;;;;;5041625;28;20120;-50
2021/12/28 07:46:48;;;;;;;4.07;3.45;;;;;;;;;;5043488;28;20037;-50
2021/12/28 07:49:13;;;;;;;3.20;2.90;;;;;;;;;;5041554;28;20037;-51
2021/12/28 07:51:39;;;;;;;2.95;2.63;;;;;;;;;;5042590;28;20042;-49
2021/12/28 07:54:04;;;;;;;4.10;3.70;;;;;;;;;;5043211;28;20029;-49
2021/12/28 07:56:30;;;;;;;4.45;4.05;;;;;;;;;;5041285;28;20040;-47
2021/12/28 07:58:55;;;;;;;3.25;2.72;;;;;;;;;;5040600;28;20041;-49
2021/12/28 08:01:20;;;;;;;3.47;3.15;;;;;;;;;;5042075;28;20052;-50
2021/12/28 08:03:46;;;;;;;2.95;2.65;;;;;;;;;;5038855;28;20043;-50
2021/12/28 08:06:11;;;;;;;4.10;2.90;;;;;;;;;;5039088;28;20450;-52
2021/12/28 08:08:37;;;;;;;3.15;2.85;;;;;;;;;;5043219;28;20037;-51
2021/12/28 08:11:02;;;;;;;3.03;2.50;;;;;;;;;;5038799;28;20133;-50
2021/12/28 08:13:28;;;;;;;2.97;2.67;;;;;;;;;;5040782;28;20496;-49
2021/12/28 08:15:55;;;;;;;3.38;3.08;;;;;;;;;;5041530;28;20036;-49
2021/12/28 08:18:20;;;;;;;3.00;2.70;;;;;;;;;;5043057;28;20028;-49
2021/12/28 08:20:46;;;;;;;3.10;2.80;;;;;;;;;;5038991;28;20413;-48
2021/12/28 08:23:11;;;;;;;3.53;2.85;;;;;;;;;;5041028;28;20048;-49
2021/12/28 08:25:36;;;;;;;3.58;3.28;;;;;;;;;;5040559;28;20036;-50
2021/12/28 08:28:05;;;;;;;3.42;3.13;;;;;;;;;;5036513;28;20582;-52
2021/12/28 08:30:31;;;;;;;2.80;2.45;;;;;;;;;;5042182;28;20032;-50
2021/12/28 08:32:57;;;;;;;3.20;2.90;;;;;;;;;;5047995;28;20029;-49
2021/12/28 08:35:22;;;;;;;3.53;3.22;;;;;;;;;;5040765;28;20025;-52
2021/12/28 08:37:48;;;;;;;3.70;2.78;;;;;;;;;;5038322;28;20067;-49
2021/12/28 08:40:16;;;;;;;4.40;3.28;;;;;;;;;;5042827;28;20359;-49
2021/12/28 08:42:41;;;;;;;3.50;3.00;;;;;;;;;;5042388;28;20116;-51
2021/12/28 08:45:07;;;;;;;4.05;3.65;;;;;;;;;;5039611;28;20171;-52
2021/12/28 08:47:33;;;;;;;3.78;3.47;;;;;;;;;;5040660;28;20029;-52
2021/12/28 08:49:59;;;;;;;3.25;2.95;;;;;;;;;;5038472;28;20051;-49
2021/12/28 08:52:25;;;;;;;3.75;3.38;;;;;;;;;;5037682;28;20036;-51
2021/12/28 08:54:51;;;;;;;3.53;3.22;;;;;;;;;;5040368;28;20060;-52
2021/12/28 08:57:18;;;;;;;3.03;2.72;;;;;;;;;;5038350;28;20465;-52
2021/12/28 08:59:44;;;;;;;3.45;2.83;;;;;;;;;;5041718;28;20083;-53
2021/12/28 09:02:10;;;;;;;3.00;2.70;;;;;;;;;;5041426;28;20029;-50
2021/12/28 09:04:39;;;;;;;3.70;3.40;;;;;;;;;;5041223;28;20029;-54
2021/12/28 09:07:05;;;;;;;3.42;3.13;;;;;;;;;;5037173;28;20060;-52
2021/12/28 09:09:30;;;;;;;3.30;3.00;;;;;;;;;;5038063;28;20431;-49
2021/12/28 09:11:56;;;;;;;3.97;3.58;;;;;;;;;;5037927;28;20055;-53
2021/12/28 09:14:21;;;;;;;3.58;3.28;;;;;;;;;;5038514;28;20040;-51
2021/12/28 09:16:46;;;;;;;3.00;2.70;;;;;;;;;;5038048;28;20044;-52
2021/12/28 09:19:12;;;;;;;3.13;2.83;;;;;;;;;;5046474;28;20069;-53
2021/12/28 09:21:37;;;;;;;4.03;3.38;;;;;;;;;;5037468;28;20071;-51
2021/12/28 09:24:03;;;;;;;2.78;2.42;;;;;;;;;;5039875;28;20029;-54
2021/12/28 09:26:28;;;;;;;3.60;3.20;;;;;;;;;;5038053;28;20025;-48
2021/12/28 09:28:54;;;;;;;3.15;2.85;;;;;;;;;;5045759;28;20043;-52
2021/12/28 09:31:19;;;;;;;4.38;3.75;;;;;;;;;;5039451;28;20041;-50
2021/12/28 09:33:45;;;;;;;3.42;3.13;;;;;;;;;;5038471;28;20459;-49
2021/12/28 09:36:14;;;;;;;3.60;3.30;;;;;;;;;;5038412;28;20128;-49
2021/12/28 09:38:41;;;;;;;3.20;2.90;;;;;;;;;;5039504;28;20044;-52
2021/12/28 09:41:06;;;;;;;3.58;3.28;;;;;;;;;;5041859;28;20052;-56
2021/12/28 09:43:32;;;;;;;4.00;3.60;;;;;;;;;;5039808;28;20036;-56
2021/12/28 09:45:58;;;;;;;3.60;3.30;;;;;;;;;;5039805;28;20021;-56
2021/12/28 09:48:25;;;;;;;3.25;2.95;;;;;;;;;;5039441;28;20044;-56
2021/12/28 09:50:50;;;;;;;3.60;3.30;;;;;;;;;;5035956;28;20543;-55
2021/12/28 09:53:16;;;;;;;4.20;3.80;;;;;;;;;;5038663;28;20104;-48
2021/12/28 09:55:42;;;;;;;3.05;2.75;;;;;;;;;;5039784;28;20132;-52
2021/12/28 09:58:09;;;;;;;2.88;2.55;;;;;;;;;;5039144;28;20102;-49
2021/12/28 10:00:35;;;;;;;3.38;3.00;;;;;;;;;;5039500;28;20067;-51
2021/12/28 10:03:01;;;;;;;3.97;3.65;;;;;;;;;;5039859;28;20043;-52
2021/12/28 10:05:27;;;;;;;4.03;3.63;;;;;;;;;;5036998;28;20551;-48
2021/12/28 10:07:59;;;;;;;3.90;3.60;;;;;;;;;;5037528;28;20025;-56
2021/12/28 10:10:31;;;;;;;3.75;3.45;;;;;;;;;;5038957;28;20029;-56
2021/12/28 10:13:00;;;;;;;4.40;4.00;;;;;;;;;;5039612;28;20060;-51
2021/12/28 10:15:29;;;;;;;4.15;3.75;;;;;;;;;;5038690;28;20043;-56
2021/12/28 10:17:58;;;;;;;4.30;4.00;;;;;;;;;;5041005;28;20380;-56
2021/12/28 10:20:36;;;;;;;3.05;2.75;;;;;;;;;;5041150;28;20033;-56
2021/12/28 10:23:11;;;;;;;3.35;3.05;;;;;;;;;;5038185;28;20072;-55
2021/12/28 10:25:47;;;;;;;4.00;3.60;;;;;;;;;;5038384;28;20022;-56
2021/12/28 10:28:16;;;;;;;3.72;3.42;;;;;;;;;;5037551;28;20029;-57
2021/12/28 10:30:43;;;;;;;3.63;3.33;;;;;;;;;;5038798;28;20033;-56
2021/12/28 10:33:17;;;;;;;3.33;3.03;;;;;;;;;;5038575;28;20048;-56
2021/12/28 10:35:49;;;;;;;3.65;3.35;;;;;;;;;;5038281;28;20455;-55
2021/12/28 10:38:29;;;;;;;4.75;3.78;;;;;;;;;;5040554;28;20051;-56
2021/12/28 10:40:59;;;;;;;4.05;3.65;;;;;;;;;;5040118;28;20120;-54
2021/12/28 10:43:27;;;;;;;3.58;3.28;;;;;;;;;;5039795;28;20040;-57
2021/12/28 10:46:01;;;;;;;4.25;3.85;;;;;;;;;;5036859;28;20456;-57
2021/12/28 10:48:39;;;;;;;3.55;3.25;;;;;;;;;;5040920;28;20016;-57
2021/12/28 10:51:10;;;;;;;4.20;3.80;;;;;;;;;;5045398;28;20521;-57
2021/12/28 10:53:49;;;;;;;;;;;;;;;;;;5036935;28;20510;-57
2021/12/28 10:56:15;;;;;;;3.42;3.13;;;;;;;;;;5038090;28;19917;-57
2021/12/28 10:58:46;;;;;;;4.22;3.85;;;;;;;;;;5038369;28;20842;-57
2021/12/28 11:01:33;;;;;;;3.40;3.10;;;;;;;;;;5039985;28;20386;-57
2021/12/28 11:04:04;;;;;;;3.63;3.28;;;;;;;;;;5032287;28;20091;-55
2021/12/28 11:06:32;;;;;;;4.57;3.30;;;;;;;;;;5035158;28;20040;-57
2021/12/28 11:09:06;;;;;;;3.72;3.35;;;;;;;;;;5040630;28;20033;-55
2021/12/28 11:11:33;;;;;;;4.05;3.38;;;;;;;;;;5038782;28;20130;-58
2021/12/28 11:14:09;;;;;;;3.85;3.55;;;;;;;;;;5040609;28;20163;-58
2021/12/28 11:16:35;;;;;;;4.00;3.55;;;;;;;;;;5034619;28;20067;-58
2021/12/28 11:19:03;;;;;;;3.88;3.58;;;;;;;;;;5038241;28;20033;-58
2021/12/28 11:21:41;;;;;;;3.97;3.58;;;;;;;;;;5034904;28;20629;-58
2021/12/28 11:24:10;;;;;;;4.45;3.50;;;;;;;;;;5037128;28;20036;-58
2021/12/28 11:26:44;;;;;;;3.50;3.20;;;;;;;;;;5037110;28;20026;-58
2021/12/28 11:29:15;;;;;;;5.07;4.03;;;;;;;;;;5038258;28;20068;-58
2021/12/28 11:31:44;;;;;;;3.45;3.15;;;;;;;;;;5036067;28;20523;-58
2021/12/28 11:34:18;;;;;;;3.40;3.08;;;;;;;;;;5035137;28;20045;-58
2021/12/28 11:36:52;;;;;;;4.28;3.80;;;;;;;;;;5038170;28;20112;-58
2021/12/28 11:39:20;;;;;;;3.28;2.97;;;;;;;;;;5041973;28;20040;-57
2021/12/28 11:41:47;;;;;;;3.63;3.33;;;;;;;;;;5039993;28;20459;-57
2021/12/28 11:44:15;;;;;;;3.30;3.00;;;;;;;;;;5042340;28;20032;-58
2021/12/28 11:46:41;;;;;;;3.28;2.97;;;;;;;;;;5044709;28;20811;-57
2021/12/28 11:49:09;;;;;;;3.63;3.33;;;;;;;;;;5041596;28;20140;-57
2021/12/28 11:51:35;;;;;;;3.35;2.95;;;;;;;;;;5039353;28;20478;-57
2021/12/28 11:54:07;;;;;;;3.55;2.83;;;;;;;;;;5042837;28;20029;-57
2021/12/28 11:56:40;;;;;;;3.88;3.10;;;;;;;;;;5040288;28;20119;-57
2021/12/28 11:59:17;;;;;;;2.97;2.67;;;;;;;;;;5042733;28;20044;-57
2021/12/28 12:01:50;;;;;;;3.08;2.78;;;;;;;;;;5047797;28;20029;-58
2021/12/28 12:04:33;;;;;;;3.50;3.20;;;;;;;;;;5039668;28;20033;-57
2021/12/28 12:07:16;;;;;;;3.05;2.75;;;;;;;;;;5041364;28;20162;-57
2021/12/28 12:09:50;;;;;;;3.03;2.72;;;;;;;;;;5041374;28;20047;-57
2021/12/28 12:12:28;;;;;;;3.88;3.20;;;;;;;;;;5040825;28;20413;-57
2021/12/28 12:15:01;;;;;;;2.95;2.65;;;;;;;;;;5038404;28;20107;-57
2021/12/28 12:17:29;;;;;;;3.50;3.20;;;;;;;;;;5040756;28;20463;-57
2021/12/28 12:20:00;;;;;;;3.08;2.78;;;;;;;;;;5039418;28;20390;-57
2021/12/28 12:22:33;;;;;;;3.75;3.38;;;;;;;;;;5041094;28;20037;-57
2021/12/28 12:25:05;;;;;;;3.00;2.67;;;;;;;;;;5040757;28;20036;-57
2021/12/28 12:27:52;;;;;;;3.20;2.90;;;;;;;;;;5041775;28;20052;-58
2021/12/28 12:30:17;;;;;;;3.60;3.30;;;;;;;;;;5042580;28;20498;-57
2021/12/28 12:33:10;;;;;;;3.00;2.60;;;;;;;;;;5039271;28;20116;-58
2021/12/28 12:35:41;;;;;;;3.28;2.97;;;;;;;;;;5038848;28;20494;-56
2021/12/28 12:38:12;;;;;;;3.05;2.70;;;;;;;;;;5041418;28;20088;-58
2021/12/28 12:41:00;;;;;;;;;;;;;;;;;;5042386;28;20040;-57
2021/12/28 12:43:34;;;;;;;3.22;2.92;;;;;;;;;;5044783;28;20258;-57
2021/12/28 12:46:07;;;;;;;2.95;2.60;;;;;;;;;;5055425;28;21057;-57
2021/12/28 12:48:36;;;;;;;3.15;2.85;;;;;;;;;;5042348;28;20075;-57
2021/12/28 12:51:22;;;;;;;3.17;2.78;;;;;;;;;;5040536;28;20033;-57
2021/12/28 12:54:28;;;;;;;3.17;2.88;;;;;;;;;;5038356;28;20090;-57
2021/12/28 12:56:56;;;;;;;3.15;2.85;;;;;;;;;;5047839;28;20035;-56
2021/12/28 12:59:38;;;;;;;3.20;2.67;;;;;;;;;;5044770;28;20032;-56
2021/12/28 13:02:09;;;;;;;3.38;3.08;;;;;;;;;;5040680;28;20114;-55
2021/12/28 13:04:35;;;;;;;3.38;2.78;;;;;;;;;;5046259;28;20091;-53
2021/12/28 13:07:12;;;;;;;3.28;2.97;;;;;;;;;;5046000;28;20467;-56
2021/12/28 13:09:58;;;;;;;3.22;2.92;;;;;;;;;;5046673;28;20072;-55
2021/12/28 13:12:25;;;;;;;3.63;3.33;;;;;;;;;;5034937;28;20116;-51
2021/12/28 13:14:50;;;;;;;4.07;3.67;;;;;;;;;;5039538;28;20033;-53
2021/12/28 13:17:22;;;;;;;3.25;2.95;;;;;;;;;;5040802;28;20032;-54
2021/12/28 13:20:09;;;;;;;3.63;3.17;;;;;;;;;;5039250;28;20068;-51
2021/12/28 13:22:39;;;;;;;3.38;3.08;;;;;;;;;;5039536;28;20048;-54
2021/12/28 13:25:09;;;;;;;3.78;3.42;;;;;;;;;;5036617;28;20108;-56
2021/12/28 13:27:35;;;;;;;3.50;3.20;;;;;;;;;;5036700;28;20033;-55
2021/12/28 13:30:01;;;;;;;4.85;2.92;;;;;;;;;;5038100;28;20120;-56
2021/12/28 13:32:34;;;;;;;3.10;2.80;;;;;;;;;;5041860;28;20116;-57
2021/12/28 13:35:23;;;;;;;3.25;2.95;;;;;;;;;;5038935;28;20037;-57
2021/12/28 13:37:57;;;;;;;3.40;3.00;;;;;;;;;;5038899;28;20029;-57
2021/12/28 13:40:30;;;;;;;3.17;2.85;;;;;;;;;;5039708;28;20036;-57
2021/12/28 13:42:58;;;;;;;4.50;3.72;;;;;;;;;;5041935;28;20017;-57
2021/12/28 13:45:33;;;;;;;3.17;2.88;;;;;;;;;;5037145;28;20025;-57
2021/12/28 13:48:03;;;;;;;3.22;2.88;;;;;;;;;;5039289;28;20455;-57
2021/12/28 13:50:28;;;;;;;3.27;2.97;;;;;;;;;;5044698;28;20437;-57
2021/12/28 13:52:57;;;;;;;2.90;2.60;;;;;;;;;;5041624;28;20035;-57
2021/12/28 13:55:35;;;;;;;3.28;2.97;;;;;;;;;;5039676;28;20033;-58
2021/12/28 13:58:03;;;;;;;3.00;2.70;;;;;;;;;;5042621;28;20455;-59
2021/12/28 14:00:31;;;;;;;2.92;2.63;;;;;;;;;;5037748;28;20184;-58
2021/12/28 14:03:00;;;;;;;3.35;3.05;;;;;;;;;;5042056;28;20029;-57
2021/12/28 14:05:26;;;;;;;3.65;3.35;;;;;;;;;;5039373;28;20017;-58
2021/12/28 14:07:53;;;;;;;3.25;2.95;;;;;;;;;;5037203;28;20025;-58
2021/12/28 14:10:19;;;;;;;3.25;2.95;;;;;;;;;;5039851;28;20040;-57
2021/12/28 14:13:04;;;;;;;2.83;2.53;;;;;;;;;;5040020;28;20083;-56
2021/12/28 14:15:30;;;;;;;3.00;2.70;;;;;;;;;;5038801;28;20124;-57
2021/12/28 14:17:55;;;;;;;4.10;3.08;;;;;;;;;;5039131;28;20156;-57
2021/12/28 14:20:28;;;;;;;3.10;2.80;;;;;;;;;;5040509;28;20079;-57
2021/12/28 14:22:56;;;;;;;2.90;2.40;;;;;;;;;;5037989;28;20378;-57
2021/12/28 14:25:22;;;;;;;3.83;3.42;;;;;;;;;;5035640;28;20403;-57
2021/12/28 14:27:55;;;;;;;3.08;2.75;;;;;;;;;;5036336;28;20033;-57
2021/12/28 14:30:24;;;;;;;3.25;2.95;;;;;;;;;;5041215;28;20021;-57
2021/12/28 14:32:51;;;;;;;3.10;2.80;;;;;;;;;;5036876;28;20554;-57
2021/12/28 14:35:19;;;;;;;7.25;2.88;;;;;;;;;;5037647;28;20112;-57
2021/12/28 14:37:47;;;;;;;3.00;2.70;;;;;;;;;;5039228;28;20029;-58
2021/12/28 14:40:26;;;;;;;3.83;2.95;;;;;;;;;;5037598;28;20105;-57
2021/12/28 14:42:52;;;;;;;4.68;2.97;;;;;;;;;;5039697;28;20036;-57
2021/12/28 14:45:27;;;;;;;3.45;3.15;;;;;;;;;;5037758;28;20410;-57
2021/12/28 14:47:53;;;;;;;4.03;2.92;;;;;;;;;;5036976;28;20024;-57